Time;durP1;ratioP1;P1;durP2;ratioP2;P2;SDS_P1;SDS_P2;PMS_P1;PMS_P2;Temp;Humidity;BMP_temperature;BMP_pressure;BME280_temperature;BME280_humidity;BME280_pressure;Samples;Min_cycle;Max_cycle;Signal;HPM_P1;HPM_P2
2022/08/18 00:04:56;;;;;;;41.83;7.95;;;;;;;25.65;58.66;99409.38;10374497;28;20116;-72
2022/08/18 00:09:57;;;;;;;17.83;6.97;;;;;;;26.09;58.80;99473.63;10374220;28;20460;-72
2022/08/18 00:15:03;;;;;;;19.45;6.80;;;;;;;25.95;59.05;99459.91;10373756;28;20125;-72
2022/08/18 00:20:07;;;;;;;22.77;7.80;;;;;;;25.96;59.78;99479.78;10374124;28;20041;-72
2022/08/18 00:25:11;;;;;;;18.83;6.85;;;;;;;25.96;59.62;99493.38;10373111;28;20037;-72
2022/08/18 00:30:13;;;;;;;;;;;;;;;26.16;58.56;99493.13;10373893;28;20065;-72
2022/08/18 00:35:19;;;;;;;20.87;7.20;;;;;;;25.72;60.58;99472.41;10373115;28;19929;-73
2022/08/18 00:40:24;;;;;;;23.40;7.63;;;;;;;25.75;61.97;99490.06;10373516;28;20135;-72
2022/08/18 00:45:29;;;;;;;18.40;7.00;;;;;;;25.76;62.26;99480.81;10372876;28;20594;-72
2022/08/18 00:50:39;;;;;;;21.13;7.80;;;;;;;25.76;62.90;99477.25;10372276;28;20141;-72
2022/08/18 00:55:44;;;;;;;20.30;7.82;;;;;;;25.72;62.40;99469.69;10371564;28;20125;-72
2022/08/18 01:00:46;;;;;;;26.10;7.82;;;;;;;25.62;62.37;99452.69;10372590;28;20050;-72
2022/08/18 01:05:58;;;;;;;19.27;7.50;;;;;;;25.35;63.11;99398.88;10372668;28;20038;-73
2022/08/18 01:11:01;;;;;;;29.38;8.32;;;;;;;25.81;62.46;99478.00;10370841;28;20073;-72
2022/08/18 01:21:49;;;;;;;41.05;8.88;;;;;;;25.84;62.33;99457.63;10370717;28;20584;-72
2022/08/18 01:26:51;;;;;;;18.92;7.55;;;;;;;25.72;62.86;99471.59;10376235;28;20034;-73
2022/08/18 01:31:55;;;;;;;42.85;9.15;;;;;;;25.67;63.14;99468.94;10380261;28;20148;-72
2022/08/18 01:36:56;;;;;;;58.38;9.63;;;;;;;25.17;62.82;99405.84;10380090;28;20413;-72
2022/08/18 01:41:57;;;;;;;80.03;12.18;;;;;;;25.24;63.68;99423.44;10379046;28;20041;-72
2022/08/18 01:46:58;;;;;;;363.63;29.23;;;;;;;25.24;64.11;99455.25;10379437;28;20482;-72
2022/08/18 01:51:59;;;;;;;69.35;12.40;;;;;;;25.01;64.95;99459.50;10379211;28;20121;-72
2022/08/18 01:56:59;;;;;;;217.73;21.00;;;;;;;24.94;65.07;99443.53;10379736;28;20046;-72
2022/08/18 02:02:00;;;;;;;71.13;13.30;;;;;;;24.76;65.19;99431.44;10379055;28;20041;-72
2022/08/18 02:07:03;;;;;;;203.50;19.67;;;;;;;25.01;65.47;99467.66;10379522;28;20542;-72
2022/08/18 02:12:06;;;;;;;260.48;24.02;;;;;;;25.09;65.73;99469.75;10379503;28;20050;-73
2022/08/18 02:17:10;;;;;;;300.37;28.53;;;;;;;24.65;65.10;99404.66;10378297;28;20042;-72
2022/08/18 02:22:14;;;;;;;293.13;27.98;;;;;;;24.96;66.16;99476.66;10377384;28;20297;-71
2022/08/18 02:27:16;;;;;;;169.27;19.67;;;;;;;24.79;65.98;99440.94;10378604;28;20124;-72
2022/08/18 02:32:17;;;;;;;274.55;25.52;;;;;;;24.92;66.17;99462.03;10376977;28;20145;-72
2022/08/18 02:37:17;;;;;;;37.40;9.85;;;;;;;24.53;65.90;99400.41;10377315;28;20128;-72
2022/08/18 02:42:18;;;;;;;215.07;21.83;;;;;;;25.00;66.35;99460.59;10377532;28;20092;-72
2022/08/18 02:47:22;;;;;;;59.47;11.00;;;;;;;24.54;66.00;99393.88;10376860;28;20042;-71
2022/08/18 02:52:31;;;;;;;35.92;10.57;;;;;;;25.03;65.98;99468.97;10376602;28;20076;-72
2022/08/18 02:57:32;;;;;;;21.20;8.75;;;;;;;25.04;66.19;99448.88;10376412;28;20054;-72
2022/08/18 03:02:33;;;;;;;110.50;15.68;;;;;;;25.41;66.67;99468.41;10377218;28;20415;-72
2022/08/18 03:07:34;;;;;;;84.75;13.25;;;;;;;25.03;66.46;99392.91;10376665;28;20092;-72
2022/08/18 03:12:35;;;;;;;62.33;11.88;;;;;;;25.83;66.64;99470.41;10375891;28;20034;-72
2022/08/18 03:17:36;;;;;;;59.45;10.75;;;;;;;25.83;66.28;99426.88;10375591;28;20077;-72
2022/08/18 03:22:37;;;;;;;18.05;8.23;;;;;;;26.06;63.70;99386.31;10376058;28;20042;-73
2022/08/18 03:27:38;;;;;;;23.58;7.45;;;;;;;26.93;62.38;99459.38;10375628;28;20505;-72
2022/08/18 03:32:39;;;;;;;14.55;7.10;;;;;;;27.48;60.33;99472.31;10375716;28;20371;-72
2022/08/18 03:37:39;;;;;;;12.07;6.30;;;;;;;28.25;58.67;99447.03;10374611;28;20060;-73
2022/08/18 03:42:40;;;;;;;25.25;6.88;;;;;;;28.90;56.79;99473.16;10374803;28;20123;-73
2022/08/18 03:47:41;;;;;;;19.35;6.57;;;;;;;29.65;54.01;99474.28;10374742;28;20261;-72
2022/08/18 03:52:47;;;;;;;28.38;11.90;;;;;;;30.28;51.39;99452.22;10374317;28;20074;-72
2022/08/18 03:57:51;;;;;;;17.63;6.70;;;;;;;30.43;50.38;99394.19;10374044;28;20100;-72
2022/08/18 04:02:52;;;;;;;27.42;13.07;;;;;;;31.00;49.29;99393.97;10373912;28;20137;-72
2022/08/18 04:07:53;;;;;;;24.08;8.20;;;;;;;32.02;47.63;99452.66;10374109;28;20132;-72
2022/08/18 04:12:54;;;;;;;21.45;6.47;;;;;;;32.33;45.64;99440.47;10374440;28;20136;-72
2022/08/18 04:17:58;;;;;;;14.93;6.18;;;;;;;32.53;43.81;99412.19;10374498;28;20172;-72
2022/08/18 04:23:00;;;;;;;21.17;8.77;;;;;;;33.19;43.71;99442.44;10372862;28;20129;-72
2022/08/18 04:28:02;;;;;;;25.08;10.13;;;;;;;33.28;43.57;99436.03;10372241;28;20457;-73
2022/08/18 04:33:05;;;;;;;22.83;8.10;;;;;;;33.67;42.56;99447.56;10354803;28;20042;-73
2022/08/18 04:38:06;;;;;;;29.95;9.07;;;;;;;33.77;41.91;99425.06;10350949;28;20494;-73
2022/08/18 04:43:14;;;;;;;23.85;6.93;;;;;;;34.21;41.21;99416.97;10351364;28;20053;-73
2022/08/18 04:48:15;;;;;;;17.02;5.63;;;;;;;34.39;40.24;99434.84;10360676;28;20069;-73
2022/08/18 04:58:35;;;;;;;24.90;6.78;;;;;;;34.24;39.70;99430.06;10371845;28;20502;-74
2022/08/18 05:03:37;;;;;;;13.95;6.00;;;;;;;33.82;39.60;99430.34;10370618;28;20038;-73
2022/08/18 05:08:38;;;;;;;16.67;6.45;;;;;;;33.64;39.50;99432.53;10372065;28;20045;-73
2022/08/18 05:13:38;;;;;;;27.73;7.40;;;;;;;32.79;40.07;99343.19;10372903;28;20038;-73
2022/08/18 05:18:39;;;;;;;35.22;7.55;;;;;;;32.93;40.15;99334.59;10371654;28;20048;-73
2022/08/18 05:23:42;;;;;;;21.92;6.82;;;;;;;33.56;40.85;99441.69;10371444;28;20042;-74
2022/08/18 05:28:44;;;;;;;25.30;6.40;;;;;;;33.47;40.68;99407.94;10372403;28;20058;-73
2022/08/18 05:33:46;;;;;;;24.05;7.25;;;;;;;33.57;40.36;99440.56;10371959;28;20084;-74
2022/08/18 05:39:05;;;;;;;20.50;6.72;;;;;;;33.03;40.46;99369.97;10371884;28;20049;-73
2022/08/18 05:44:11;;;;;;;20.80;6.95;;;;;;;33.40;40.18;99414.03;10371145;28;20042;-73
2022/08/18 05:49:14;;;;;;;23.27;8.27;;;;;;;33.57;40.14;99426.81;10371649;28;20077;-73
2022/08/18 05:59:39;;;;;;;28.65;7.65;;;;;;;33.58;39.86;99425.66;10371428;28;20064;-72
2022/08/18 06:04:48;;;;;;;25.95;8.35;;;;;;;33.90;40.18;99432.16;10371561;28;20038;-75
2022/08/18 06:09:52;;;;;;;23.77;7.63;;;;;;;34.07;39.73;99422.84;10372080;28;20038;-73
2022/08/18 06:15:00;;;;;;;22.30;7.72;;;;;;;34.13;39.30;99423.41;10378724;28;20504;-72
2022/08/18 06:20:33;;;;;;;17.38;7.03;;;;;;;34.33;39.24;99427.16;10377834;28;20042;-72
2022/08/18 06:26:00;;;;;;;14.32;6.20;;;;;;;34.17;40.25;99371.97;10378247;28;20049;-72
2022/08/18 06:31:28;;;;;;;17.83;6.35;;;;;;;34.18;38.47;99323.97;10377911;28;20046;-74
2022/08/18 06:37:05;;;;;;;18.73;6.35;;;;;;;34.77;39.67;99381.16;10377990;28;20101;-73
2022/08/18 06:42:06;;;;;;;27.27;6.93;;;;;;;34.84;39.15;99339.94;10377596;28;20041;-73
2022/08/18 06:47:28;;;;;;;27.85;5.90;;;;;;;35.57;38.26;99409.59;10376991;28;20125;-72
2022/08/18 06:52:32;;;;;;;19.90;6.22;;;;;;;35.53;38.16;99392.94;10376745;28;20095;-72
2022/08/18 06:57:36;;;;;;;38.38;7.45;;;;;;;35.59;37.82;99369.41;10376564;28;20048;-73
2022/08/18 07:02:36;;;;;;;21.83;5.85;;;;;;;35.89;36.95;99386.28;10376809;28;20049;-74
2022/08/18 07:07:40;;;;;;;20.55;6.47;;;;;;;35.85;36.40;99370.78;10377188;28;20041;-73
2022/08/18 07:12:41;;;;;;;24.33;5.97;;;;;;;35.90;36.05;99381.56;10376470;28;20477;-71
2022/08/18 07:17:47;;;;;;;15.25;5.25;;;;;;;35.41;35.15;99244.72;10375791;28;20080;-71
2022/08/18 07:22:54;;;;;;;34.58;7.25;;;;;;;36.51;35.02;99369.00;10375044;28;20050;-71
2022/08/18 07:27:56;;;;;;;18.23;5.90;;;;;;;36.81;35.18;99349.03;10376213;28;20053;-72
2022/08/18 07:33:15;;;;;;;18.50;6.53;;;;;;;36.87;34.17;99362.19;10376105;28;20124;-71
2022/08/18 07:38:23;;;;;;;23.77;5.97;;;;;;;36.18;34.25;99279.09;10375752;28;20038;-73
2022/08/18 07:43:52;;;;;;;18.58;6.30;;;;;;;36.62;33.62;99338.78;10375570;28;20050;-73
2022/08/18 07:48:54;;;;;;;18.20;5.63;;;;;;;36.60;34.14;99321.78;10374760;28;20037;-75
2022/08/18 07:54:29;;;;;;;22.45;5.97;;;;;;;37.09;32.80;99332.91;10374582;28;20080;-71
2022/08/18 07:59:35;;;;;;;26.40;5.85;;;;;;;37.49;32.91;99350.19;10372843;28;20104;-73
2022/08/18 08:04:57;;;;;;;19.35;5.93;;;;;;;37.57;31.84;99324.97;10374822;28;20034;-72
2022/08/18 08:10:07;;;;;;;19.45;5.47;;;;;;;37.52;31.97;99310.66;10374371;28;20041;-73
2022/08/18 08:15:52;;;;;;;19.10;5.43;;;;;;;38.07;31.24;99336.72;10374114;28;20042;-73
2022/08/18 08:20:57;;;;;;;27.80;6.65;;;;;;;37.77;31.16;99272.19;10374123;28;20480;-73
2022/08/18 08:26:03;;;;;;;19.30;6.35;;;;;;;38.16;31.59;99335.66;10373197;28;20121;-73
2022/08/18 08:31:08;;;;;;;25.73;6.68;;;;;;;38.21;31.10;99338.09;10372947;28;20140;-72
2022/08/18 08:36:16;;;;;;;19.60;5.80;;;;;;;37.86;30.57;99270.72;10373322;28;20099;-72
2022/08/18 08:41:30;;;;;;;31.52;7.45;;;;;;;38.28;30.28;99338.16;10373579;28;20044;-72
2022/08/18 08:46:41;;;;;;;21.27;6.50;;;;;;;38.15;30.75;99309.91;10373410;28;20065;-73
2022/08/18 08:51:48;;;;;;;21.60;6.07;;;;;;;38.45;29.78;99322.94;10372359;28;20042;-73
2022/08/18 08:56:53;;;;;;;21.42;5.82;;;;;;;38.00;30.09;99256.25;10372629;28;20269;-74
2022/08/18 09:02:09;;;;;;;21.88;5.10;;;;;;;38.72;29.20;99318.81;10371367;28;20049;-73
2022/08/18 09:07:28;;;;;;;16.35;5.05;;;;;;;38.94;30.68;99319.03;10372512;28;20088;-73
2022/08/18 09:13:10;;;;;;;19.70;6.70;;;;;;;38.71;29.16;99252.56;10372339;28;20046;-72
2022/08/18 09:18:33;;;;;;;24.60;5.95;;;;;;;39.13;28.73;99304.91;10372048;28;20071;-72
2022/08/18 09:23:41;;;;;;;23.85;5.72;;;;;;;39.20;27.89;99295.81;10372479;28;20042;-75
2022/08/18 09:28:57;;;;;;;15.10;5.57;;;;;;;39.31;27.82;99307.84;10372321;28;20136;-72
2022/08/18 09:34:20;;;;;;;18.30;5.47;;;;;;;39.06;27.69;99238.19;10372516;28;20446;-74
2022/08/18 09:45:06;;;;;;;21.10;6.82;;;;;;;39.01;26.98;99236.59;10371821;28;20045;-73
2022/08/18 09:50:16;;;;;;;24.13;6.55;;;;;;;39.54;26.85;99299.22;10380002;28;20054;-72
2022/08/18 09:55:16;;;;;;;21.60;5.95;;;;;;;39.25;26.89;99246.25;10378979;28;20116;-72
2022/08/18 10:00:27;;;;;;;17.53;5.70;;;;;;;39.70;26.21;99260.81;10378248;28;20128;-72
2022/08/18 10:05:30;;;;;;;16.20;5.97;;;;;;;39.92;26.34;99280.38;10379463;28;20494;-72
2022/08/18 10:10:48;;;;;;;18.67;6.10;;;;;;;40.17;26.03;99291.56;10378375;28;20092;-73
2022/08/18 10:15:49;;;;;;;27.75;6.00;;;;;;;39.59;26.23;99223.03;10378276;28;20045;-75
2022/08/18 10:20:59;;;;;;;56.23;8.43;;;;;;;39.60;27.56;99296.88;10378597;28;20044;-72
2022/08/18 10:26:00;;;;;;;28.23;6.70;;;;;;;39.75;26.18;99284.66;10378432;28;20280;-71
2022/08/18 10:31:04;;;;;;;21.17;6.67;;;;;;;39.57;26.45;99270.66;10378128;28;20067;-72
2022/08/18 10:36:05;;;;;;;20.50;6.13;;;;;;;39.03;26.70;99267.53;10378340;28;20038;-72
2022/08/18 10:41:25;;;;;;;18.93;5.80;;;;;;;39.07;26.16;99275.09;10377705;28;20052;-72
2022/08/18 10:46:32;;;;;;;31.00;6.55;;;;;;;39.09;26.08;99272.72;10376965;28;20045;-73
2022/08/18 10:52:00;;;;;;;21.65;5.95;;;;;;;39.48;26.20;99278.56;10376552;28;20115;-73
2022/08/18 10:57:46;;;;;;;14.68;5.65;;;;;;;39.40;26.23;99265.78;10375989;28;20049;-71
2022/08/18 11:03:08;;;;;;;28.67;9.07;;;;;;;39.12;27.46;99269.19;10376412;28;20387;-72
2022/08/18 11:08:13;;;;;;;25.52;6.88;;;;;;;39.01;25.99;99261.59;10376178;28;20038;-71
2022/08/18 11:13:31;;;;;;;25.42;6.40;;;;;;;39.15;26.67;99260.88;10350173;28;20120;-73
2022/08/18 11:18:43;;;;;;;20.00;6.43;;;;;;;39.13;26.55;99234.66;10336849;28;20096;-73
2022/08/18 11:23:44;;;;;;;20.27;6.10;;;;;;;39.13;25.98;99252.16;10351625;28;20050;-72
2022/08/18 11:28:44;;;;;;;19.60;6.70;;;;;;;38.69;26.79;99172.50;10363234;28;20054;-73
2022/08/18 11:33:47;;;;;;;38.57;8.07;;;;;;;39.33;27.01;99241.56;10371682;28;20528;-72
2022/08/18 11:38:55;;;;;;;34.10;6.63;;;;;;;39.67;25.60;99236.56;10371713;28;20038;-72
2022/08/18 11:43:58;;;;;;;20.52;6.38;;;;;;;39.47;26.65;99238.84;10371518;28;20064;-72
2022/08/18 11:49:12;;;;;;;19.27;6.10;;;;;;;39.23;25.85;99234.72;10373754;28;20125;-72
2022/08/18 11:54:14;;;;;;;16.13;5.95;;;;;;;39.11;26.26;99239.81;10374484;28;20040;-73
2022/08/18 11:59:31;;;;;;;24.27;6.57;;;;;;;38.50;27.57;99181.06;10375650;28;20509;-70
2022/08/18 12:04:38;;;;;;;22.65;6.75;;;;;;;37.81;28.35;99184.31;10375544;28;20552;-71
2022/08/18 12:10:01;;;;;;;31.85;6.88;;;;;;;37.41;29.05;99200.47;10373895;28;20073;-71
2022/08/18 12:15:24;;;;;;;31.95;6.30;;;;;;;37.37;29.14;99243.16;10373378;28;20125;-71
2022/08/18 12:20:25;;;;;;;38.97;7.20;;;;;;;36.95;29.81;99208.13;10368381;28;20437;-72
2022/08/18 12:25:26;;;;;;;35.03;6.83;;;;;;;37.03;29.52;99251.34;10372100;28;20038;-71
2022/08/18 12:30:27;;;;;;;22.40;6.60;;;;;;;37.20;29.59;99252.78;10372925;28;20204;-71
2022/08/18 12:35:27;;;;;;;32.47;5.90;;;;;;;37.44;29.79;99216.31;10368801;28;20041;-73
2022/08/18 12:40:28;;;;;;;33.05;6.38;;;;;;;37.24;29.65;99184.41;10352297;28;20089;-68
2022/08/18 12:45:32;;;;;;;25.87;5.77;;;;;;;37.22;30.03;99187.56;10349877;28;20046;-73
2022/08/18 12:50:35;;;;;;;32.08;6.28;;;;;;;37.55;30.11;99222.03;10348279;28;20417;-71
2022/08/18 12:55:42;;;;;;;42.63;7.20;;;;;;;37.94;29.35;99216.19;10357523;28;20041;-70
2022/08/18 13:00:43;;;;;;;72.70;8.88;;;;;;;37.53;29.53;99204.19;10367423;28;20072;-79
2022/08/18 13:05:44;;;;;;;40.40;7.00;;;;;;;37.36;29.70;99224.91;10369637;28;20052;-76
2022/08/18 13:10:46;;;;;;;44.87;6.30;;;;;;;37.30;30.33;99232.75;10367982;28;20095;-76
2022/08/18 13:15:48;;;;;;;;;;;;;;;37.54;29.67;99244.56;10371609;28;20293;-80
2022/08/18 13:20:48;;;;;;;89.60;8.82;;;;;;;36.67;29.24;99133.75;10369401;28;19940;-78
2022/08/18 13:25:49;;;;;;;43.70;7.47;;;;;;;37.09;29.61;99190.91;10375589;28;20052;-77
2022/08/18 13:30:50;;;;;;;47.20;7.67;;;;;;;37.14;29.62;99149.06;10368762;28;20506;-76
2022/08/18 13:35:52;;;;;;;95.17;9.40;;;;;;;37.57;29.24;99247.38;10360980;28;20042;-78
2022/08/18 13:40:56;;;;;;;76.78;10.05;;;;;;;36.92;29.91;99200.56;10358097;28;20502;-84
2022/08/18 13:45:58;;;;;;;49.97;7.65;;;;;;;36.78;29.20;99239.88;10359150;28;20068;-73
2022/08/18 13:51:01;;;;;;;69.03;6.63;;;;;;;35.91;29.93;99258.00;10373336;28;20048;-74
2022/08/18 13:56:04;;;;;;;70.80;7.07;;;;;;;35.08;30.29;99197.44;10380495;28;20137;-76
2022/08/18 14:01:06;;;;;;;52.80;5.22;;;;;;;35.04;30.52;99273.81;10379250;28;20046;-76
2022/08/18 14:06:07;;;;;;;50.00;5.40;;;;;;;34.33;30.95;99203.88;10379177;28;20038;-72
2022/08/18 14:11:08;;;;;;;73.70;6.40;;;;;;;34.45;30.80;99295.56;10378455;28;20440;-74
2022/08/18 14:16:10;;;;;;;56.63;5.13;;;;;;;34.18;31.12;99310.19;10379840;28;20068;-73
2022/08/18 14:26:49;;;;;;;49.05;5.47;;;;;;;33.58;31.97;99310.78;10378925;28;20123;-75
2022/08/18 14:31:51;;;;;;;53.97;5.65;;;;;;;33.16;32.30;99324.78;10377107;28;20148;-74
2022/08/18 14:36:52;;;;;;;;;;;;;;;33.24;31.83;99347.06;10378397;28;20140;-71
2022/08/18 14:41:53;;;;;;;40.47;3.75;;;;;;;32.00;32.70;99203.00;10377362;28;20000;-71
2022/08/18 14:46:56;;;;;;;17.23;2.45;;;;;;;32.55;33.02;99330.19;10376438;28;20041;-74
2022/08/18 14:51:59;;;;;;;18.77;2.40;;;;;;;32.45;33.35;99344.34;10363846;28;20088;-77
2022/08/18 14:57:01;;;;;;;18.98;2.92;;;;;;;32.14;34.17;99315.34;10336615;28;20038;-73
2022/08/18 15:02:02;;;;;;;23.42;3.10;;;;;;;31.19;34.66;99214.44;10368919;28;20050;-75
2022/08/18 15:07:03;;;;;;;9.43;2.03;;;;;;;31.56;35.68;99314.31;10348435;28;20042;-71
2022/08/18 15:12:04;;;;;;;28.90;3.00;;;;;;;31.23;35.97;99286.72;10336332;28;20132;-76
2022/08/18 15:17:05;;;;;;;20.83;3.35;;;;;;;31.05;36.21;99283.25;10336712;28;20082;-73
2022/08/18 15:27:33;;;;;;;18.75;2.55;;;;;;;31.00;35.93;99311.69;10334810;28;20042;-73
2022/08/18 15:32:34;;;;;;;19.17;3.05;;;;;;;30.44;36.19;99262.34;10334424;28;20062;-71
2022/08/18 15:37:36;;;;;;;13.40;3.08;;;;;;;30.81;36.27;99336.75;10335144;28;20058;-74
2022/08/18 15:42:45;;;;;;;12.57;2.45;;;;;;;30.48;36.75;99323.59;10334890;28;20446;-71
2022/08/18 15:47:49;;;;;;;18.55;2.58;;;;;;;30.48;36.79;99352.91;10333205;28;20042;-71
2022/08/18 15:52:52;;;;;;;22.23;2.17;;;;;;;29.91;37.27;99307.31;10334241;28;20176;-70
2022/08/18 15:57:53;;;;;;;;;;;;;;;30.31;36.83;99386.63;10352795;28;20184;-71
2022/08/18 16:02:57;;;;;;;9.60;2.50;;;;;;;29.54;37.99;99306.78;10415924;28;20453;-72
2022/08/18 16:07:59;;;;;;;13.55;2.40;;;;;;;29.92;37.86;99377.41;10414337;28;20030;-71
2022/08/18 16:13:03;;;;;;;20.33;2.53;;;;;;;29.93;38.41;99389.94;10408202;28;20171;-73
2022/08/18 16:18:05;;;;;;;12.75;2.88;;;;;;;29.90;38.20;99387.06;10354099;28;20407;-72
2022/08/18 16:23:06;;;;;;;13.65;2.58;;;;;;;29.51;38.03;99312.88;10350054;28;20076;-74
2022/08/18 16:28:08;;;;;;;17.83;2.25;;;;;;;29.81;38.18;99378.81;10335297;28;20478;-72
2022/08/18 16:33:09;;;;;;;19.75;2.45;;;;;;;29.64;38.01;99362.38;10346892;28;20045;-72
2022/08/18 16:38:09;;;;;;;7.82;1.60;;;;;;;29.76;37.98;99390.72;10347095;28;20041;-76
2022/08/18 16:43:11;;;;;;;12.63;2.05;;;;;;;29.71;37.93;99379.13;10352104;28;21716;-75
2022/08/18 16:48:12;;;;;;;18.52;2.40;;;;;;;29.63;37.70;99375.25;10364876;28;20103;-72
2022/08/18 16:53:15;;;;;;;8.57;1.40;;;;;;;29.09;37.88;99290.56;10370975;28;20057;-69
2022/08/18 17:08:56;;;;;;;10.95;2.03;;;;;;;29.32;37.98;99367.09;10362196;28;20060;-74
2022/08/18 17:13:59;;;;;;;12.82;2.08;;;;;;;29.31;38.27;99374.47;10342330;28;20051;-74
2022/08/18 17:19:00;;;;;;;;;;;;;;;29.41;38.29;99347.97;10347749;28;20124;-72
2022/08/18 17:24:04;;;;;;;21.02;3.50;;;;;;;28.67;38.84;99240.88;10339034;28;20003;-72
2022/08/18 17:29:20;;;;;;;23.55;4.53;;;;;;;28.72;39.32;99239.09;10354443;28;20406;-74
2022/08/18 17:34:30;;;;;;;21.17;4.63;;;;;;;28.96;39.65;99288.75;10356907;28;20462;-77
2022/08/18 17:39:53;;;;;;;18.85;3.22;;;;;;;28.80;39.67;99271.94;10358037;28;20497;-76
2022/08/18 17:45:00;;;;;;;24.73;3.47;;;;;;;28.92;40.04;99297.88;10352776;28;20525;-77
2022/08/18 17:55:36;;;;;;;21.48;3.05;;;;;;;28.70;40.51;99266.75;10370780;28;20034;-74
2022/08/18 18:00:36;;;;;;;31.17;3.25;;;;;;;28.42;40.50;99225.19;10356404;28;20046;-74
2022/08/18 18:05:46;;;;;;;13.82;2.70;;;;;;;28.17;41.01;99202.03;10340778;28;20062;-75
2022/08/18 18:10:49;;;;;;;77.38;40.45;;;;;;;28.62;40.88;99301.09;10337888;28;20042;-77
2022/08/18 18:15:56;;;;;;;25.23;8.70;;;;;;;28.21;41.18;99241.25;10364223;28;20560;-77
2022/08/18 18:21:06;;;;;;;15.77;4.03;;;;;;;28.65;41.31;99322.34;10365062;28;20050;-77
2022/08/18 18:26:31;;;;;;;13.60;2.70;;;;;;;28.66;41.48;99340.38;10377505;28;20077;-79
2022/08/18 18:31:32;;;;;;;17.77;2.90;;;;;;;28.58;41.10;99348.50;10378388;28;20506;-80
2022/08/18 18:36:39;;;;;;;19.65;4.35;;;;;;;28.54;41.08;99364.72;10367483;28;20046;-82
2022/08/18 18:41:40;;;;;;;20.30;4.00;;;;;;;28.23;41.56;99362.69;10356243;28;20141;-80
2022/08/18 18:46:56;;;;;;;22.85;2.80;;;;;;;27.89;42.36;99322.25;10362334;28;20038;-75
2022/08/18 18:52:15;;;;;;;16.40;2.30;;;;;;;28.15;42.36;99388.00;10336175;28;20043;-78
2022/08/18 18:57:31;;;;;;;21.52;2.88;;;;;;;27.98;42.63;99396.84;10336067;28;20038;-78
2022/08/18 19:03:09;;;;;;;17.67;2.80;;;;;;;28.03;42.39;99403.28;10336544;28;20141;-78
2022/08/18 19:08:41;;;;;;;12.15;2.05;;;;;;;27.07;43.10;99271.31;10335095;28;20396;-79
2022/08/18 19:13:48;;;;;;;;;;;;;;;28.06;41.80;99417.16;10332762;28;20058;-73
2022/08/18 19:18:54;;;;;;;14.85;2.80;;;;;;;27.93;42.46;99423.44;10351627;28;20013;-80
2022/08/18 19:23:58;;;;;;;14.93;1.90;;;;;;;27.98;42.12;99431.53;10373120;28;20129;-74
2022/08/18 19:29:06;;;;;;;13.73;2.10;;;;;;;28.02;41.88;99431.72;10345536;28;20065;-73
2022/08/18 19:34:22;;;;;;;13.63;2.28;;;;;;;27.94;41.89;99433.22;10335925;28;20076;-71
2022/08/18 19:39:41;;;;;;;17.35;2.80;;;;;;;27.92;42.32;99446.41;10335301;28;20129;-74
2022/08/18 19:44:55;;;;;;;13.93;2.17;;;;;;;26.71;42.28;99266.53;10335504;28;20057;-72
2022/08/18 19:50:14;;;;;;;11.30;2.30;;;;;;;27.07;42.29;99345.72;10334618;28;20042;-73
2022/08/18 19:55:46;;;;;;;14.75;2.47;;;;;;;27.62;42.76;99456.78;10334523;28;20042;-78
2022/08/18 20:00:55;;;;;;;10.98;1.90;;;;;;;27.54;43.25;99469.19;10334402;28;20061;-74
2022/08/18 20:06:32;;;;;;;16.38;2.42;;;;;;;27.46;44.01;99494.47;10333709;28;20564;-74
2022/08/18 20:11:37;;;;;;;20.67;2.40;;;;;;;26.93;44.34;99445.75;10334056;28;20482;-73
2022/08/18 20:16:44;;;;;;;16.33;2.47;;;;;;;26.91;44.78;99479.84;10333185;28;20069;-74
2022/08/18 20:21:46;;;;;;;45.33;4.05;;;;;;;27.03;45.79;99545.59;10348523;28;20634;-73
2022/08/18 20:26:48;;;;;;;28.45;3.33;;;;;;;26.57;47.86;99522.56;10346143;28;20053;-74
2022/08/18 20:31:52;;;;;;;32.30;4.37;;;;;;;26.34;50.39;99550.63;10338007;28;20515;-72
2022/08/18 20:36:57;;;;;;;91.22;8.55;;;;;;;26.09;51.06;99559.94;10332180;28;20293;-70
2022/08/18 20:42:03;;;;;;;56.05;7.40;;;;;;;25.65;52.81;99550.81;10333327;28;20047;-71
2022/08/18 20:47:37;;;;;;;56.85;5.82;;;;;;;25.59;53.87;99570.22;10332057;28;20046;-70
2022/08/18 20:52:44;;;;;;;31.85;3.97;;;;;;;25.45;55.03;99589.88;10331018;28;20043;-73
2022/08/18 20:57:46;;;;;;;12.63;2.60;;;;;;;24.82;55.01;99525.38;10331584;28;20038;-68
2022/08/18 21:02:50;;;;;;;20.33;2.95;;;;;;;25.21;55.94;99600.66;10331663;28;20053;-72
2022/08/18 21:08:04;;;;;;;23.02;3.05;;;;;;;25.18;56.74;99601.25;10332182;28;20038;-82
2022/08/18 21:13:06;;;;;;;13.73;2.45;;;;;;;24.73;56.79;99540.66;10332428;28;20137;-76
2022/08/18 21:18:20;;;;;;;19.60;2.95;;;;;;;24.77;58.31;99551.78;10331711;28;20038;-75
2022/08/18 21:23:29;;;;;;;39.05;3.88;;;;;;;24.92;60.13;99602.47;10331822;28;20508;-77
2022/08/18 21:28:33;;;;;;;48.83;5.35;;;;;;;24.84;61.05;99609.31;10333176;28;20062;-70
2022/08/18 21:33:34;;;;;;;34.28;4.57;;;;;;;24.36;61.91;99541.09;10348167;28;20046;-69
2022/08/18 21:38:36;;;;;;;44.15;5.20;;;;;;;24.71;63.27;99618.06;10370428;28;20042;-72
2022/08/18 21:43:45;;;;;;;46.95;5.60;;;;;;;24.19;65.02;99560.44;10375590;28;20120;-69
2022/08/18 21:48:50;;;;;;;24.30;4.50;;;;;;;24.69;65.42;99650.13;10379474;28;20073;-74
2022/08/18 21:53:52;;;;;;;19.52;3.92;;;;;;;24.52;64.74;99629.56;10379732;28;20077;-68
2022/08/18 21:59:10;;;;;;;12.20;3.47;;;;;;;24.66;64.93;99659.66;10378963;28;20041;-73
2022/08/18 22:04:17;;;;;;;15.77;3.45;;;;;;;24.60;64.50;99660.75;10358960;28;20057;-70
2022/08/18 22:14:47;;;;;;;7.18;2.55;;;;;;;24.64;63.50;99661.03;10337752;28;20544;-69
2022/08/18 22:19:49;;;;;;;12.35;2.95;;;;;;;24.20;63.12;99574.81;10338837;28;20046;-70
2022/08/18 22:24:57;;;;;;;11.95;3.25;;;;;;;24.64;63.29;99661.03;10337301;28;20041;-75
2022/08/18 22:30:03;;;;;;;12.18;2.97;;;;;;;24.55;62.94;99671.63;10338191;28;20097;-70
2022/08/18 22:35:06;;;;;;;7.97;2.80;;;;;;;24.60;62.38;99677.88;10337327;28;20057;-72
2022/08/18 22:40:12;;;;;;;7.43;2.43;;;;;;;24.63;62.34;99670.25;10337929;28;20108;-69
2022/08/18 22:45:13;;;;;;;9.88;3.00;;;;;;;24.39;62.02;99630.13;10344066;28;20041;-74
2022/08/18 22:50:14;;;;;;;10.32;2.72;;;;;;;24.58;61.85;99638.50;10376124;28;20053;-71
2022/08/18 22:55:17;;;;;;;9.77;2.90;;;;;;;24.08;62.07;99545.28;10376093;28;20062;-71
2022/08/18 23:00:20;;;;;;;13.20;2.53;;;;;;;24.53;61.39;99606.75;10377592;28;20180;-69
2022/08/18 23:05:22;;;;;;;11.38;2.60;;;;;;;24.09;60.82;99512.44;10337615;28;20117;-71
2022/08/18 23:10:23;;;;;;;14.80;3.50;;;;;;;24.22;60.47;99523.78;10336881;28;20042;-69
2022/08/18 23:20:46;;;;;;;7.45;2.08;;;;;;;24.28;59.62;99476.53;10376420;28;20402;-72
2022/08/18 23:25:49;;;;;;;11.15;2.95;;;;;;;24.54;59.88;99532.34;10376300;28;20081;-69
2022/08/18 23:30:52;;;;;;;11.02;2.60;;;;;;;24.41;59.96;99540.25;10375681;28;20425;-71
2022/08/18 23:35:53;;;;;;;11.43;2.92;;;;;;;24.64;59.59;99579.53;10376960;28;20045;-70
2022/08/18 23:40:56;;;;;;;12.35;2.50;;;;;;;24.32;59.91;99508.28;10376144;28;20504;-70
2022/08/18 23:45:56;;;;;;;10.60;2.27;;;;;;;24.56;59.33;99562.75;10374170;28;20465;-71
2022/08/18 23:51:01;;;;;;;12.13;2.97;;;;;;;24.68;59.47;99577.88;10375910;28;20046;-71
2022/08/18 23:56:04;;;;;;;10.85;2.80;;;;;;;24.22;59.40;99496.66;10375155;28;20048;-70
